sensor_id;sensor_type;location;lat;lon;timestamp;pressure;altitude;pressure_sealevel;temperature;humidity
63115;BME280;49208;50.874;6.466;2022-08-19T05:02:07;100286.28;;;15.00;100.00
63115;BME280;49208;50.874;6.466;2022-08-19T05:04:34;100282.41;;;15.06;100.00
63115;BME280;49208;50.874;6.466;2022-08-19T05:07:00;100284.81;;;15.10;100.00
63115;BME280;49208;50.874;6.466;2022-08-19T05:09:26;100290.78;;;15.15;100.00
63115;BME280;49208;50.874;6.466;2022-08-19T05:11:52;100283.44;;;15.19;100.00
63115;BME280;49208;50.874;6.466;2022-08-19T05:14:18;100299.25;;;15.24;100.00
63115;BME280;49208;50.874;6.466;2022-08-19T05:16:44;100302.53;;;15.29;100.00
63115;BME280;49208;50.874;6.466;2022-08-19T05:19:10;100302.25;;;15.33;100.00
63115;BME280;49208;50.874;6.466;2022-08-19T05:21:54;100313.50;;;15.40;100.00
63115;BME280;49208;50.874;6.466;2022-08-19T05:24:38;100318.41;;;15.48;100.00
63115;BME280;49208;50.874;6.466;2022-08-19T05:27:04;100314.53;;;15.53;100.00
63115;BME280;49208;50.874;6.466;2022-08-19T05:29:31;100315.00;;;15.60;100.00
63115;BME280;49208;50.874;6.466;2022-08-19T05:31:59;100315.28;;;15.71;100.00
63115;BME280;49208;50.874;6.466;2022-08-19T05:34:26;100312.75;;;15.84;99.76
63115;BME280;49208;50.874;6.466;2022-08-19T05:36:54;100310.19;;;15.97;99.41
63115;BME280;49208;50.874;6.466;2022-08-19T05:39:21;100305.91;;;16.09;99.33
63115;BME280;49208;50.874;6.466;2022-08-19T05:41:49;100303.41;;;16.20;98.80
63115;BME280;49208;50.874;6.466;2022-08-19T05:44:16;100305.72;;;16.26;98.43
63115;BME280;49208;50.874;6.466;2022-08-19T05:46:45;100299.97;;;16.32;98.21
63115;BME280;49208;50.874;6.466;2022-08-19T05:49:13;100300.56;;;16.38;98.01
63115;BME280;49208;50.874;6.466;2022-08-19T05:51:40;100307.56;;;16.40;98.10
63115;BME280;49208;50.874;6.466;2022-08-19T05:54:06;100303.81;;;16.43;97.94
63115;BME280;49208;50.874;6.466;2022-08-19T05:56:33;100302.75;;;16.45;97.88
63115;BME280;49208;50.874;6.466;2022-08-19T05:59:04;100298.91;;;16.49;97.83
63115;BME280;49208;50.874;6.466;2022-08-19T06:01:34;100288.84;;;16.53;98.05
63115;BME280;49208;50.874;6.466;2022-08-19T06:04:00;100292.00;;;16.60;98.24
63115;BME280;49208;50.874;6.466;2022-08-19T06:06:25;100287.22;;;16.65;97.77
63115;BME280;49208;50.874;6.466;2022-08-19T06:08:51;100294.00;;;16.70;97.64
63115;BME280;49208;50.874;6.466;2022-08-19T06:11:38;100306.97;;;16.78;97.33
63115;BME280;49208;50.874;6.466;2022-08-19T06:14:10;100312.97;;;16.83;97.20
63115;BME280;49208;50.874;6.466;2022-08-19T06:16:38;100305.38;;;16.90;97.12
63115;BME280;49208;50.874;6.466;2022-08-19T06:19:07;100304.00;;;16.97;97.05
63115;BME280;49208;50.874;6.466;2022-08-19T06:21:33;100297.06;;;17.07;97.20
63115;BME280;49208;50.874;6.466;2022-08-19T06:24:01;100301.84;;;17.16;96.79
63115;BME280;49208;50.874;6.466;2022-08-19T06:26:27;100298.63;;;17.24;96.01
63115;BME280;49208;50.874;6.466;2022-08-19T06:28:53;100295.91;;;17.38;96.24
63115;BME280;49208;50.874;6.466;2022-08-19T06:31:24;100304.44;;;17.72;96.24
63115;BME280;49208;50.874;6.466;2022-08-19T06:33:49;100299.69;;;18.29;95.57
63115;BME280;49208;50.874;6.466;2022-08-19T06:36:27;100312.34;;;19.04;91.96
63115;BME280;49208;50.874;6.466;2022-08-19T06:38:55;100304.72;;;19.70;88.59
63115;BME280;49208;50.874;6.466;2022-08-19T06:41:22;100304.97;;;20.02;85.79
63115;BME280;49208;50.874;6.466;2022-08-19T06:43:47;100319.47;;;20.01;83.48
63115;BME280;49208;50.874;6.466;2022-08-19T06:46:15;100308.75;;;19.88;83.23
63115;BME280;49208;50.874;6.466;2022-08-19T06:48:41;100310.13;;;19.70;83.08
63115;BME280;49208;50.874;6.466;2022-08-19T06:51:06;100310.88;;;19.48;83.31
63115;BME280;49208;50.874;6.466;2022-08-19T06:53:32;100312.03;;;19.32;83.76
63115;BME280;49208;50.874;6.466;2022-08-19T06:55:57;100319.28;;;19.19;84.33
63115;BME280;49208;50.874;6.466;2022-08-19T06:58:28;100325.03;;;19.14;85.00
63115;BME280;49208;50.874;6.466;2022-08-19T07:01:03;100321.72;;;19.35;85.33
63115;BME280;49208;50.874;6.466;2022-08-19T07:03:31;100322.91;;;20.03;84.18
63115;BME280;49208;50.874;6.466;2022-08-19T07:06:05;100318.84;;;21.01;81.18
63115;BME280;49208;50.874;6.466;2022-08-19T07:08:32;100307.75;;;22.12;75.81
63115;BME280;49208;50.874;6.466;2022-08-19T07:10:57;100320.22;;;22.97;72.65
63115;BME280;49208;50.874;6.466;2022-08-19T07:13:23;100328.38;;;23.57;70.15
63115;BME280;49208;50.874;6.466;2022-08-19T07:15:49;100336.75;;;23.85;67.70
63115;BME280;49208;50.874;6.466;2022-08-19T07:18:17;100339.16;;;23.97;66.91
63115;BME280;49208;50.874;6.466;2022-08-19T07:20:42;100336.56;;;24.25;64.54
63115;BME280;49208;50.874;6.466;2022-08-19T07:23:08;100336.03;;;24.69;62.90
63115;BME280;49208;50.874;6.466;2022-08-19T07:25:36;100332.19;;;24.99;61.45
63115;BME280;49208;50.874;6.466;2022-08-19T07:28:02;100333.63;;;25.03;60.74
63115;BME280;49208;50.874;6.466;2022-08-19T07:30:28;100341.31;;;24.80;60.32
63115;BME280;49208;50.874;6.466;2022-08-19T07:32:55;100346.25;;;24.47;59.69
63115;BME280;49208;50.874;6.466;2022-08-19T07:35:21;100356.88;;;24.21;60.51
63115;BME280;49208;50.874;6.466;2022-08-19T07:37:47;100353.75;;;24.06;60.50
63115;BME280;49208;50.874;6.466;2022-08-19T07:40:13;100358.31;;;24.25;59.80
63115;BME280;49208;50.874;6.466;2022-08-19T07:42:38;100366.94;;;24.87;58.06
63115;BME280;49208;50.874;6.466;2022-08-19T07:45:05;100363.22;;;25.71;55.82
63115;BME280;49208;50.874;6.466;2022-08-19T07:47:31;100362.47;;;26.59;53.98
63115;BME280;49208;50.874;6.466;2022-08-19T07:49:57;100360.59;;;27.28;50.89
63115;BME280;49208;50.874;6.466;2022-08-19T07:52:22;100370.38;;;27.90;49.66
63115;BME280;49208;50.874;6.466;2022-08-19T07:54:48;100367.59;;;28.72;47.17
63115;BME280;49208;50.874;6.466;2022-08-19T07:57:15;100360.78;;;29.55;45.26
63115;BME280;49208;50.874;6.466;2022-08-19T07:59:40;100358.78;;;30.03;43.29
63115;BME280;49208;50.874;6.466;2022-08-19T08:02:06;100362.25;;;30.43;42.32
63115;BME280;49208;50.874;6.466;2022-08-19T08:04:31;100362.84;;;30.53;42.20
63115;BME280;49208;50.874;6.466;2022-08-19T08:07:16;100361.16;;;30.82;41.46
63115;BME280;49208;50.874;6.466;2022-08-19T08:10:10;100365.16;;;31.09;40.34
63115;BME280;49208;50.874;6.466;2022-08-19T08:12:39;100367.91;;;31.09;39.32
63115;BME280;49208;50.874;6.466;2022-08-19T08:15:13;100372.41;;;30.57;39.92
63115;BME280;49208;50.874;6.466;2022-08-19T08:17:41;100362.28;;;29.74;40.63
63115;BME280;49208;50.874;6.466;2022-08-19T08:20:07;100358.59;;;29.50;41.72
63115;BME280;49208;50.874;6.466;2022-08-19T08:22:33;100356.59;;;29.36;41.76
63115;BME280;49208;50.874;6.466;2022-08-19T08:25:21;100360.97;;;29.22;41.87
63115;BME280;49208;50.874;6.466;2022-08-19T08:27:48;100364.19;;;29.26;41.95
63115;BME280;49208;50.874;6.466;2022-08-19T08:30:20;100369.66;;;29.34;42.87
63115;BME280;49208;50.874;6.466;2022-08-19T08:32:46;100364.44;;;29.16;43.22
63115;BME280;49208;50.874;6.466;2022-08-19T08:35:15;100372.63;;;29.24;41.94
63115;BME280;49208;50.874;6.466;2022-08-19T08:37:42;100374.31;;;29.25;42.38
63115;BME280;49208;50.874;6.466;2022-08-19T08:40:28;100387.19;;;29.25;42.09
63115;BME280;49208;50.874;6.466;2022-08-19T08:43:09;100377.97;;;29.01;43.05
63115;BME280;49208;50.874;6.466;2022-08-19T08:45:42;100385.94;;;28.71;43.65
63115;BME280;49208;50.874;6.466;2022-08-19T08:48:19;100378.94;;;28.36;44.51
63115;BME280;49208;50.874;6.466;2022-08-19T08:50:47;100377.56;;;28.15;45.48
63115;BME280;49208;50.874;6.466;2022-08-19T08:53:17;100371.38;;;27.89;45.90
63115;BME280;49208;50.874;6.466;2022-08-19T08:55:44;100370.91;;;27.42;47.19
63115;BME280;49208;50.874;6.466;2022-08-19T08:58:14;100360.81;;;27.00;48.84
63115;BME280;49208;50.874;6.466;2022-08-19T09:00:46;100355.66;;;26.63;50.60
63115;BME280;49208;50.874;6.466;2022-08-19T09:03:24;100364.22;;;26.68;50.15
63115;BME280;49208;50.874;6.466;2022-08-19T09:06:32;100368.63;;;26.61;50.47
63115;BME280;49208;50.874;6.466;2022-08-19T09:09:22;100364.91;;;26.70;50.57
63115;BME280;49208;50.874;6.466;2022-08-19T09:17:00;100363.25;;;27.12;49.41
63115;BME280;49208;50.874;6.466;2022-08-19T09:19:29;100357.78;;;27.12;48.64
63115;BME280;49208;50.874;6.466;2022-08-19T09:21:55;100367.75;;;27.21;48.52
63115;BME280;49208;50.874;6.466;2022-08-19T09:24:20;100372.94;;;27.40;48.60
63115;BME280;49208;50.874;6.466;2022-08-19T09:26:46;100368.56;;;27.64;48.75
63115;BME280;49208;50.874;6.466;2022-08-19T09:29:12;100365.41;;;27.93;46.97
63115;BME280;49208;50.874;6.466;2022-08-19T09:31:38;100364.41;;;28.19;46.11
63115;BME280;49208;50.874;6.466;2022-08-19T09:34:04;100368.13;;;28.42;46.00
63115;BME280;49208;50.874;6.466;2022-08-19T09:36:33;100369.50;;;28.47;45.07
63115;BME280;49208;50.874;6.466;2022-08-19T09:39:03;100361.81;;;28.58;44.48
63115;BME280;49208;50.874;6.466;2022-08-19T09:41:29;100365.34;;;28.84;44.12
63115;BME280;49208;50.874;6.466;2022-08-19T09:43:56;100364.25;;;29.01;43.90
63115;BME280;49208;50.874;6.466;2022-08-19T09:46:24;100363.59;;;28.99;43.12
63115;BME280;49208;50.874;6.466;2022-08-19T09:48:50;100357.97;;;28.92;43.76
63115;BME280;49208;50.874;6.466;2022-08-19T09:51:19;100363.34;;;28.69;43.08
63115;BME280;49208;50.874;6.466;2022-08-19T09:53:46;100363.53;;;28.43;43.46
63115;BME280;49208;50.874;6.466;2022-08-19T09:56:12;100363.72;;;28.17;43.24
63115;BME280;49208;50.874;6.466;2022-08-19T09:58:38;100368.50;;;28.07;44.87
63115;BME280;49208;50.874;6.466;2022-08-19T10:01:05;100372.94;;;27.91;45.53
63115;BME280;49208;50.874;6.466;2022-08-19T10:03:33;100370.31;;;27.73;45.93
63115;BME280;49208;50.874;6.466;2022-08-19T10:06:01;100365.34;;;27.60;46.25
63115;BME280;49208;50.874;6.466;2022-08-19T10:08:30;100366.38;;;27.76;46.94
63115;BME280;49208;50.874;6.466;2022-08-19T10:10:57;100365.41;;;27.93;46.06
63115;BME280;49208;50.874;6.466;2022-08-19T10:13:28;100366.44;;;28.17;45.64
63115;BME280;49208;50.874;6.466;2022-08-19T10:15:55;100360.13;;;28.33;45.47
63115;BME280;49208;50.874;6.466;2022-08-19T10:18:22;100361.00;;;28.50;44.48
63115;BME280;49208;50.874;6.466;2022-08-19T10:20:49;100353.25;;;28.61;44.42
63115;BME280;49208;50.874;6.466;2022-08-19T10:23:16;100359.59;;;28.62;43.67
63115;BME280;49208;50.874;6.466;2022-08-19T10:25:42;100361.09;;;28.73;43.93
63115;BME280;49208;50.874;6.466;2022-08-19T10:28:09;100353.22;;;28.70;43.82
63115;BME280;49208;50.874;6.466;2022-08-19T10:30:40;100361.47;;;28.61;43.91
63115;BME280;49208;50.874;6.466;2022-08-19T10:33:06;100361.81;;;28.58;44.22
63115;BME280;49208;50.874;6.466;2022-08-19T10:35:32;100356.00;;;28.37;43.87
63115;BME280;49208;50.874;6.466;2022-08-19T10:37:58;100354.47;;;28.18;44.63
63115;BME280;49208;50.874;6.466;2022-08-19T10:40:25;100354.81;;;28.07;44.58
63115;BME280;49208;50.874;6.466;2022-08-19T10:42:51;100359.91;;;27.85;44.42
63115;BME280;49208;50.874;6.466;2022-08-19T10:45:17;100352.34;;;27.63;45.79
63115;BME280;49208;50.874;6.466;2022-08-19T10:47:42;100345.69;;;27.65;46.38
63115;BME280;49208;50.874;6.466;2022-08-19T10:50:08;100357.84;;;27.79;45.78
63115;BME280;49208;50.874;6.466;2022-08-19T10:52:52;100354.28;;;27.87;45.84
63115;BME280;49208;50.874;6.466;2022-08-19T10:55:23;100341.47;;;27.87;45.22
63115;BME280;49208;50.874;6.466;2022-08-19T10:58:15;100338.22;;;28.00;45.04
63115;BME280;49208;50.874;6.466;2022-08-19T11:00:41;100339.91;;;28.26;45.06
63115;BME280;49208;50.874;6.466;2022-08-19T11:03:08;100332.03;;;28.55;44.11
63115;BME280;49208;50.874;6.466;2022-08-19T11:05:33;100335.22;;;28.84;43.06
63115;BME280;49208;50.874;6.466;2022-08-19T11:07:59;100335.91;;;28.86;42.30
63115;BME280;49208;50.874;6.466;2022-08-19T11:10:24;100333.28;;;28.92;43.04
63115;BME280;49208;50.874;6.466;2022-08-19T11:12:50;100333.09;;;29.10;42.61
63115;BME280;49208;50.874;6.466;2022-08-19T11:15:20;100336.31;;;29.22;42.08
63115;BME280;49208;50.874;6.466;2022-08-19T11:17:45;100334.44;;;29.06;41.96
63115;BME280;49208;50.874;6.466;2022-08-19T11:20:12;100336.44;;;28.81;40.86
63115;BME280;49208;50.874;6.466;2022-08-19T11:22:38;100344.66;;;28.73;42.21
63115;BME280;49208;50.874;6.466;2022-08-19T11:25:05;100337.63;;;28.87;41.45
63115;BME280;49208;50.874;6.466;2022-08-19T11:27:30;100328.28;;;29.04;41.09
63115;BME280;49208;50.874;6.466;2022-08-19T11:29:55;100320.34;;;29.26;41.00
63115;BME280;49208;50.874;6.466;2022-08-19T11:32:21;100319.41;;;29.41;40.07
63115;BME280;49208;50.874;6.466;2022-08-19T11:34:46;100320.31;;;29.57;40.07
63115;BME280;49208;50.874;6.466;2022-08-19T11:37:12;100309.44;;;29.40;39.33
63115;BME280;49208;50.874;6.466;2022-08-19T11:39:37;100311.69;;;29.06;39.94
63115;BME280;49208;50.874;6.466;2022-08-19T11:42:04;100311.88;;;28.96;39.67
63115;BME280;49208;50.874;6.466;2022-08-19T11:44:49;100309.31;;;28.94;39.18
63115;BME280;49208;50.874;6.466;2022-08-19T11:47:15;100305.81;;;29.09;38.80
63115;BME280;49208;50.874;6.466;2022-08-19T11:49:40;100304.09;;;29.24;38.87
63115;BME280;49208;50.874;6.466;2022-08-19T11:52:06;100306.22;;;29.37;39.08
63115;BME280;49208;50.874;6.466;2022-08-19T11:54:32;100311.63;;;29.22;37.49
63115;BME280;49208;50.874;6.466;2022-08-19T11:56:58;100303.16;;;29.32;37.43
63115;BME280;49208;50.874;6.466;2022-08-19T11:59:23;100302.31;;;29.31;37.92
63115;BME280;49208;50.874;6.466;2022-08-19T12:01:49;100300.78;;;29.29;39.06
63115;BME280;49208;50.874;6.466;2022-08-19T12:04:14;100312.66;;;29.21;39.05
63115;BME280;49208;50.874;6.466;2022-08-19T12:06:40;100300.78;;;29.29;39.02
63115;BME280;49208;50.874;6.466;2022-08-19T12:09:07;100304.84;;;29.41;38.30
63115;BME280;49208;50.874;6.466;2022-08-19T12:11:34;100302.25;;;29.39;37.92
63115;BME280;49208;50.874;6.466;2022-08-19T12:14:02;100307.75;;;29.39;38.84
63115;BME280;49208;50.874;6.466;2022-08-19T12:16:29;100303.16;;;29.32;38.08
63115;BME280;49208;50.874;6.466;2022-08-19T12:18:56;100304.69;;;29.34;38.87
63115;BME280;49208;50.874;6.466;2022-08-19T12:21:25;100299.41;;;29.33;38.82
63115;BME280;49208;50.874;6.466;2022-08-19T12:23:53;100289.66;;;29.30;39.09
63115;BME280;49208;50.874;6.466;2022-08-19T12:26:20;100295.97;;;29.31;38.60
63115;BME280;49208;50.874;6.466;2022-08-19T12:28:45;100297.94;;;29.22;38.91
63115;BME280;49208;50.874;6.466;2022-08-19T12:31:13;100282.25;;;28.99;39.36
63115;BME280;49208;50.874;6.466;2022-08-19T12:33:40;100292.06;;;28.86;39.45
63115;BME280;49208;50.874;6.466;2022-08-19T12:36:16;100278.66;;;28.91;40.13
63115;BME280;49208;50.874;6.466;2022-08-19T12:39:03;100277.22;;;29.03;40.33
63115;BME280;49208;50.874;6.466;2022-08-19T12:41:32;100278.78;;;29.14;39.07
63115;BME280;49208;50.874;6.466;2022-08-19T12:44:26;100286.50;;;29.10;39.64
63115;BME280;49208;50.874;6.466;2022-08-19T12:46:51;100277.28;;;28.95;38.98
63115;BME280;49208;50.874;6.466;2022-08-19T12:49:17;100282.53;;;29.05;39.96
63115;BME280;49208;50.874;6.466;2022-08-19T12:51:42;100277.78;;;28.98;39.69
63115;BME280;49208;50.874;6.466;2022-08-19T12:54:08;100277.56;;;29.08;39.28
63115;BME280;49208;50.874;6.466;2022-08-19T12:56:33;100280.47;;;29.15;39.75
63115;BME280;49208;50.874;6.466;2022-08-19T12:59:01;100274.47;;;29.11;40.20
63115;BME280;49208;50.874;6.466;2022-08-19T13:01:28;100275.50;;;29.18;39.81
63115;BME280;49208;50.874;6.466;2022-08-19T13:03:58;100277.69;;;29.23;39.81
63115;BME280;49208;50.874;6.466;2022-08-19T13:06:24;100279.91;;;29.19;38.86
63115;BME280;49208;50.874;6.466;2022-08-19T13:08:50;100283.88;;;29.17;38.70
63115;BME280;49208;50.874;6.466;2022-08-19T13:11:18;100267.59;;;29.15;38.55
63115;BME280;49208;50.874;6.466;2022-08-19T13:13:47;100273.97;;;29.08;38.68
63115;BME280;49208;50.874;6.466;2022-08-19T13:16:13;100269.88;;;29.04;38.29
63115;BME280;49208;50.874;6.466;2022-08-19T13:18:39;100272.13;;;29.00;38.60
63115;BME280;49208;50.874;6.466;2022-08-19T13:21:06;100270.59;;;28.97;39.15
63115;BME280;49208;50.874;6.466;2022-08-19T13:23:34;100270.09;;;28.94;38.88
63115;BME280;49208;50.874;6.466;2022-08-19T13:26:04;100270.41;;;28.99;38.78
63115;BME280;49208;50.874;6.466;2022-08-19T13:28:30;100266.03;;;28.81;39.42
63115;BME280;49208;50.874;6.466;2022-08-19T13:31:18;100262.84;;;28.61;37.94
63115;BME280;49208;50.874;6.466;2022-08-19T13:34:02;100266.50;;;28.54;39.40
63115;BME280;49208;50.874;6.466;2022-08-19T13:36:28;100247.47;;;28.60;38.73
63115;BME280;49208;50.874;6.466;2022-08-19T13:38:53;100252.78;;;28.62;38.38
63115;BME280;49208;50.874;6.466;2022-08-19T13:41:19;100258.09;;;28.55;36.94
63115;BME280;49208;50.874;6.466;2022-08-19T13:43:44;100253.97;;;28.59;35.93
63115;BME280;49208;50.874;6.466;2022-08-19T13:46:11;100245.25;;;28.64;36.32
63115;BME280;49208;50.874;6.466;2022-08-19T13:48:39;100246.28;;;28.55;36.20
63115;BME280;49208;50.874;6.466;2022-08-19T13:51:06;100244.75;;;28.52;36.25
63115;BME280;49208;50.874;6.466;2022-08-19T13:53:38;100243.53;;;28.47;37.11
63115;BME280;49208;50.874;6.466;2022-08-19T13:56:08;100234.16;;;28.49;37.41
63115;BME280;49208;50.874;6.466;2022-08-19T13:58:34;100245.28;;;28.56;37.53
63115;BME280;49208;50.874;6.466;2022-08-19T14:01:00;100235.88;;;28.50;37.11
63115;BME280;49208;50.874;6.466;2022-08-19T14:03:26;100233.13;;;28.50;37.31
63115;BME280;49208;50.874;6.466;2022-08-19T14:05:51;100242.88;;;28.53;37.06
63115;BME280;49208;50.874;6.466;2022-08-19T14:08:17;100239.28;;;28.44;37.31
63115;BME280;49208;50.874;6.466;2022-08-19T14:10:43;100239.66;;;28.41;38.54
63115;BME280;49208;50.874;6.466;2022-08-19T14:13:09;100238.47;;;28.27;38.53
63115;BME280;49208;50.874;6.466;2022-08-19T14:15:35;100238.13;;;28.14;38.97
63115;BME280;49208;50.874;6.466;2022-08-19T14:18:02;100236.09;;;28.16;39.83
63115;BME280;49208;50.874;6.466;2022-08-19T14:20:27;100240.38;;;28.27;39.42
63115;BME280;49208;50.874;6.466;2022-08-19T14:22:56;100243.75;;;28.37;39.49
63115;BME280;49208;50.874;6.466;2022-08-19T14:25:26;100238.91;;;28.47;39.78
63115;BME280;49208;50.874;6.466;2022-08-19T14:27:51;100236.00;;;28.57;38.83
63115;BME280;49208;50.874;6.466;2022-08-19T14:30:21;100237.91;;;28.56;39.04
63115;BME280;49208;50.874;6.466;2022-08-19T14:32:47;100239.78;;;28.56;39.41
63115;BME280;49208;50.874;6.466;2022-08-19T14:35:14;100236.16;;;28.64;39.41
63115;BME280;49208;50.874;6.466;2022-08-19T14:37:40;100228.78;;;28.72;39.70
63115;BME280;49208;50.874;6.466;2022-08-19T14:40:06;100221.22;;;28.74;39.04
63115;BME280;49208;50.874;6.466;2022-08-19T14:42:33;100224.72;;;28.60;39.28
63115;BME280;49208;50.874;6.466;2022-08-19T14:44:59;100230.75;;;28.39;39.29
63115;BME280;49208;50.874;6.466;2022-08-19T14:47:26;100230.63;;;28.08;39.86
63115;BME280;49208;50.874;6.466;2022-08-19T14:49:52;100241.94;;;27.88;40.74
63115;BME280;49208;50.874;6.466;2022-08-19T14:52:27;100239.19;;;27.72;41.68
63115;BME280;49208;50.874;6.466;2022-08-19T14:54:53;100245.53;;;27.56;42.21
63115;BME280;49208;50.874;6.466;2022-08-19T14:57:18;100242.59;;;27.41;42.36
63115;BME280;49208;50.874;6.466;2022-08-19T14:59:44;100246.84;;;27.27;43.43
63115;BME280;49208;50.874;6.466;2022-08-19T15:02:10;100253.84;;;27.30;42.82
63115;BME280;49208;50.874;6.466;2022-08-19T15:04:36;100250.59;;;27.26;43.41
63115;BME280;49208;50.874;6.466;2022-08-19T15:07:02;100243.03;;;27.20;43.74
63115;BME280;49208;50.874;6.466;2022-08-19T15:09:34;100244.22;;;27.17;44.16
63115;BME280;49208;50.874;6.466;2022-08-19T15:12:02;100243.38;;;27.17;44.17
63115;BME280;49208;50.874;6.466;2022-08-19T15:14:30;100251.22;;;27.12;43.51
63115;BME280;49208;50.874;6.466;2022-08-19T15:17:09;100248.97;;;27.07;44.02
63115;BME280;49208;50.874;6.466;2022-08-19T15:19:35;100261.44;;;27.01;44.12
63115;BME280;49208;50.874;6.466;2022-08-19T15:22:09;100262.09;;;26.95;44.47
63115;BME280;49208;50.874;6.466;2022-08-19T15:24:35;100264.09;;;26.85;44.42
63115;BME280;49208;50.874;6.466;2022-08-19T15:27:01;100266.97;;;26.75;45.24
63115;BME280;49208;50.874;6.466;2022-08-19T15:29:27;100264.53;;;26.64;45.62
63115;BME280;49208;50.874;6.466;2022-08-19T15:31:53;100275.25;;;26.57;45.95
63115;BME280;49208;50.874;6.466;2022-08-19T15:34:22;100276.41;;;26.55;46.21
63115;BME280;49208;50.874;6.466;2022-08-19T15:36:48;100287.97;;;26.49;46.68
63115;BME280;49208;50.874;6.466;2022-08-19T15:39:20;100285.88;;;26.42;46.51
63115;BME280;49208;50.874;6.466;2022-08-19T15:41:48;100281.91;;;26.37;47.12
63115;BME280;49208;50.874;6.466;2022-08-19T15:44:18;100273.31;;;26.24;47.38
63115;BME280;49208;50.874;6.466;2022-08-19T15:46:46;100276.84;;;26.16;47.98
63115;BME280;49208;50.874;6.466;2022-08-19T15:49:16;100285.13;;;26.06;48.22
63115;BME280;49208;50.874;6.466;2022-08-19T15:51:44;100285.44;;;26.03;48.16
63115;BME280;49208;50.874;6.466;2022-08-19T15:54:13;100275.47;;;25.94;48.55
63115;BME280;49208;50.874;6.466;2022-08-19T15:56:39;100282.00;;;25.83;49.06
63115;BME280;49208;50.874;6.466;2022-08-19T15:59:23;100280.47;;;25.80;49.67
63115;BME280;49208;50.874;6.466;2022-08-19T16:02:10;100276.47;;;25.75;50.07
63115;BME280;49208;50.874;6.466;2022-08-19T16:04:54;100278.00;;;25.69;49.88
63115;BME280;49208;50.874;6.466;2022-08-19T16:07:38;100272.47;;;25.61;49.98
63115;BME280;49208;50.874;6.466;2022-08-19T16:10:05;100279.53;;;25.54;50.49
63115;BME280;49208;50.874;6.466;2022-08-19T16:12:31;100281.19;;;25.47;50.95
63115;BME280;49208;50.874;6.466;2022-08-19T16:14:57;100282.09;;;25.37;51.32
63115;BME280;49208;50.874;6.466;2022-08-19T16:17:23;100282.19;;;25.28;51.72
63115;BME280;49208;50.874;6.466;2022-08-19T16:19:49;100279.03;;;25.23;52.00
63115;BME280;49208;50.874;6.466;2022-08-19T16:22:14;100288.81;;;25.15;52.58
63115;BME280;49208;50.874;6.466;2022-08-19T16:24:40;100286.38;;;25.12;52.89
63115;BME280;49208;50.874;6.466;2022-08-19T16:27:05;100279.38;;;25.10;52.97
63115;BME280;49208;50.874;6.466;2022-08-19T16:29:31;100287.84;;;25.07;53.38
63115;BME280;49208;50.874;6.466;2022-08-19T16:32:00;100280.84;;;25.04;53.52
63115;BME280;49208;50.874;6.466;2022-08-19T16:34:25;100283.72;;;25.02;53.51
63115;BME280;49208;50.874;6.466;2022-08-19T16:36:51;100287.75;;;24.98;53.71
63115;BME280;49208;50.874;6.466;2022-08-19T16:39:16;100289.94;;;24.95;53.78
63115;BME280;49208;50.874;6.466;2022-08-19T16:41:43;100296.22;;;24.95;53.86
63115;BME280;49208;50.874;6.466;2022-08-19T16:44:11;100290.94;;;24.94;53.21
63115;BME280;49208;50.874;6.466;2022-08-19T16:46:38;100291.97;;;24.93;53.31
63115;BME280;49208;50.874;6.466;2022-08-19T16:49:09;100300.28;;;24.91;53.40
63115;BME280;49208;50.874;6.466;2022-08-19T16:51:35;100287.81;;;24.89;53.33
63115;BME280;49208;50.874;6.466;2022-08-19T16:54:01;100290.81;;;24.86;52.90
63115;BME280;49208;50.874;6.466;2022-08-19T16:56:27;100293.72;;;24.84;52.88
63115;BME280;49208;50.874;6.466;2022-08-19T16:58:53;100296.59;;;24.83;53.14
63115;BME280;49208;50.874;6.466;2022-08-19T17:01:19;100287.84;;;24.79;53.38
63115;BME280;49208;50.874;6.466;2022-08-19T17:03:45;100295.03;;;24.80;53.70
63115;BME280;49208;50.874;6.466;2022-08-19T17:06:15;100304.06;;;24.80;54.21
63115;BME280;49208;50.874;6.466;2022-08-19T17:08:42;100299.59;;;24.79;54.06
63115;BME280;49208;50.874;6.466;2022-08-19T17:11:07;100291.44;;;24.79;54.04
63115;BME280;49208;50.874;6.466;2022-08-19T17:13:34;100288.19;;;24.76;54.04
63115;BME280;49208;50.874;6.466;2022-08-19T17:16:00;100282.03;;;24.74;53.98
63115;BME280;49208;50.874;6.466;2022-08-19T17:18:25;100286.75;;;24.72;54.23
63115;BME280;49208;50.874;6.466;2022-08-19T17:20:51;100277.31;;;24.66;54.43
63115;BME280;49208;50.874;6.466;2022-08-19T17:23:20;100279.47;;;24.63;54.68
63115;BME280;49208;50.874;6.466;2022-08-19T17:25:46;100268.91;;;24.59;54.60
63115;BME280;49208;50.874;6.466;2022-08-19T17:28:16;100271.19;;;24.54;54.94
63115;BME280;49208;50.874;6.466;2022-08-19T17:30:42;100277.19;;;24.48;55.24
63115;BME280;49208;50.874;6.466;2022-08-19T17:33:08;100271.22;;;24.45;55.74
63115;BME280;49208;50.874;6.466;2022-08-19T17:35:35;100276.94;;;24.41;55.82
63115;BME280;49208;50.874;6.466;2022-08-19T17:38:06;100270.09;;;24.37;56.34
63115;BME280;49208;50.874;6.466;2022-08-19T17:40:33;100271.38;;;24.33;56.41
63115;BME280;49208;50.874;6.466;2022-08-19T17:42:59;100277.41;;;24.27;56.98
63115;BME280;49208;50.874;6.466;2022-08-19T17:45:25;100270.69;;;24.21;57.46
63115;BME280;49208;50.874;6.466;2022-08-19T17:47:51;100277.59;;;24.16;57.56
63115;BME280;49208;50.874;6.466;2022-08-19T17:50:17;100273.72;;;24.09;58.12
63115;BME280;49208;50.874;6.466;2022-08-19T17:52:42;100266.03;;;24.04;58.32
63115;BME280;49208;50.874;6.466;2022-08-19T17:55:09;100271.78;;;24.01;58.56
63115;BME280;49208;50.874;6.466;2022-08-19T17:57:36;100269.47;;;23.96;58.46
63115;BME280;49208;50.874;6.466;2022-08-19T18:00:05;100276.50;;;23.89;58.69
63115;BME280;49208;50.874;6.466;2022-08-19T18:02:31;100279.78;;;23.83;58.84